Time;durP1;ratioP1;P1;durP2;ratioP2;P2;SDS_P1;SDS_P2;PMS_P1;PMS_P2;Temp;Humidity;BMP_temperature;BMP_pressure;BME280_temperature;BME280_humidity;BME280_pressure;Samples;Min_cycle;Max_cycle;Signal;HPM_P1;HPM_P2
2022/02/11 00:08:56;;;;;;;11.32;0.98;;;4.20;99.90;;;;;;5003160;28;20450;-62
2022/02/11 00:11:35;;;;;;;13.57;1.33;;;4.30;99.90;;;;;;5000991;28;20129;-62
2022/02/11 00:14:02;;;;;;;7.40;1.33;;;4.40;99.90;;;;;;4996837;28;20546;-61
2022/02/11 00:16:27;;;;;;;5.97;0.93;;;4.50;99.90;;;;;;5003815;28;20486;-62
2022/02/11 00:18:53;;;;;;;8.75;2.05;;;4.70;99.90;;;;;;5000501;28;20080;-62
2022/02/11 00:21:20;;;;;;;2.92;0.80;;;4.70;99.90;;;;;;5002734;28;20565;-62
2022/02/11 00:23:46;;;;;;;2.15;0.80;;;4.80;99.90;;;;;;5001628;28;20478;-62
2022/02/11 00:26:13;;;;;;;7.70;1.40;;;4.90;99.90;;;;;;5000756;28;20038;-62
2022/02/11 00:34:00;;;;;;;11.13;2.63;;;5.10;99.90;;;;;;4996550;28;20100;-62
2022/02/11 00:36:33;;;;;;;11.27;1.20;;;5.10;99.90;;;;;;5003586;28;20478;-61
2022/02/11 01:02:57;;;;;;;8.00;1.08;;;5.60;99.90;;;;;;4998025;28;20068;-61
2022/02/11 01:05:23;;;;;;;10.10;1.67;;;5.50;99.90;;;;;;5000161;28;20030;-62
2022/02/11 01:07:49;;;;;;;7.75;1.90;;;5.50;99.90;;;;;;5002062;28;20409;-62
2022/02/11 01:10:16;;;;;;;8.07;1.35;;;5.50;99.90;;;;;;5000146;28;20088;-62
2022/02/11 01:12:42;;;;;;;8.38;1.08;;;5.50;99.90;;;;;;5001192;28;20038;-62
2022/02/11 01:15:09;;;;;;;7.10;1.73;;;5.50;99.90;;;;;;5001355;28;20037;-62
2022/02/11 01:17:43;;;;;;;4.35;0.75;;;5.50;99.90;;;;;;5000137;28;20034;-62
2022/02/11 01:20:18;;;;;;;20.80;2.20;;;5.50;99.90;;;;;;4999419;28;20030;-63
2022/02/11 01:30:59;;;;;;;13.00;1.85;;;5.80;99.90;;;;;;5000932;28;20031;-62
2022/02/11 01:36:23;;;;;;;9.32;1.40;;;5.80;99.90;;;;;;4996413;28;20453;-61
2022/02/11 01:44:02;;;;;;;5.47;0.60;;;5.20;99.90;;;;;;5001774;28;20034;-63
2022/02/11 01:55:04;;;;;;;6.75;0.73;;;4.90;99.90;;;;;;5000359;28;20064;-62
2022/02/11 02:26:31;;;;;;;15.68;1.88;;;5.20;99.90;;;;;;5002023;28;20496;-62
2022/02/11 02:50:24;;;;;;;19.92;2.25;;;5.40;99.90;;;;;;4998801;28;20393;-61
2022/02/11 02:58:29;;;;;;;12.48;1.33;;;5.50;99.90;;;;;;4993881;28;20564;-62
2022/02/11 03:01:14;;;;;;;12.55;2.28;;;5.60;99.90;;;;;;4994879;28;20043;-61
2022/02/11 03:15:03;;;;;;;10.90;1.45;;;5.90;99.90;;;;;;4994433;28;20524;-62
2022/02/11 04:08:43;;;;;;;7.15;1.40;;;5.60;99.90;;;;;;4999650;28;20033;-62
2022/02/11 05:00:11;;;;;;;10.30;1.25;;;5.60;99.90;;;;;;4999895;28;20045;-62
2022/02/11 05:02:38;;;;;;;9.98;2.47;;;5.70;99.90;;;;;;5002674;28;20036;-61
2022/02/11 05:05:06;;;;;;;9.27;1.52;;;5.60;99.90;;;;;;4998969;28;20034;-62
2022/02/11 05:07:33;;;;;;;16.13;1.30;;;5.60;99.90;;;;;;5002505;28;20137;-62
2022/02/11 05:10:00;;;;;;;11.07;1.90;;;5.60;99.90;;;;;;5000316;28;20144;-62
2022/02/11 05:12:26;;;;;;;7.78;1.40;;;5.50;99.90;;;;;;5000634;28;20463;-62
2022/02/11 05:14:51;;;;;;;7.38;1.50;;;5.50;99.90;;;;;;5001974;28;20042;-61
2022/02/11 05:17:17;;;;;;;8.13;1.40;;;5.40;99.90;;;;;;4997030;28;20042;-62
2022/02/11 05:19:42;;;;;;;15.80;1.48;;;5.40;99.90;;;;;;5001336;28;20114;-62
2022/02/11 05:22:08;;;;;;;10.02;1.15;;;5.40;99.90;;;;;;4998709;28;20129;-62
2022/02/11 05:24:33;;;;;;;10.93;1.55;;;5.40;99.90;;;;;;5002009;28;20104;-62
2022/02/11 05:26:59;;;;;;;7.90;1.45;;;5.30;99.90;;;;;;5020375;23;20045;-64
2022/02/11 05:29:25;;;;;;;9.05;1.38;;;5.40;99.90;;;;;;5021254;28;20145;-61
2022/02/11 05:31:51;;;;;;;8.70;1.50;;;5.30;99.90;;;;;;5021627;28;20048;-64
2022/02/11 05:34:17;;;;;;;10.85;1.48;;;5.30;99.90;;;;;;5017560;28;20109;-63
2022/02/11 05:36:43;;;;;;;9.57;2.13;;;5.20;99.90;;;;;;5009882;28;20121;-65
2022/02/11 05:39:08;;;;;;;10.43;1.52;;;5.30;99.90;;;;;;4995679;28;20037;-64
2022/02/11 05:41:34;;;;;;;12.57;1.33;;;5.30;99.90;;;;;;4999986;28;20061;-64
2022/02/11 05:43:59;;;;;;;7.53;1.45;;;5.40;99.90;;;;;;5002982;28;20046;-65
2022/02/11 05:46:27;;;;;;;7.53;1.58;;;5.40;99.90;;;;;;5000510;28;20030;-63
2022/02/11 05:48:53;;;;;;;5.18;1.02;;;5.40;99.90;;;;;;5000102;28;20034;-63
2022/02/11 05:51:19;;;;;;;7.78;0.93;;;5.30;99.90;;;;;;5001492;28;20395;-63
2022/02/11 05:53:45;;;;;;;13.32;2.10;;;5.10;99.90;;;;;;4998722;28;20045;-63
2022/02/11 05:56:10;;;;;;;6.68;0.80;;;5.10;99.90;;;;;;5001348;28;20029;-63
2022/02/11 05:58:38;;;;;;;13.57;1.67;;;5.00;99.90;;;;;;5002336;28;20049;-64
2022/02/11 06:01:04;;;;;;;7.00;0.80;;;5.00;99.90;;;;;;4998860;28;20080;-63
2022/02/11 06:03:30;;;;;;;14.07;1.75;;;4.90;99.90;;;;;;5000360;28;20681;-63
2022/02/11 06:05:56;;;;;;;8.70;0.93;;;4.80;99.90;;;;;;4999645;28;20041;-63
2022/02/11 06:08:22;;;;;;;7.82;1.17;;;4.70;99.90;;;;;;4999225;28;20387;-65
2022/02/11 06:10:48;;;;;;;13.63;2.05;;;4.70;99.90;;;;;;5001315;28;20037;-63
2022/02/11 06:13:14;;;;;;;12.57;1.60;;;4.70;99.90;;;;;;4999150;28;20052;-63
2022/02/11 06:15:42;;;;;;;9.82;1.98;;;4.70;99.90;;;;;;5002795;28;20034;-63
2022/02/11 06:18:07;;;;;;;6.25;0.85;;;4.70;99.90;;;;;;4995452;28;20057;-63
2022/02/11 06:20:33;;;;;;;19.15;2.13;;;4.60;99.90;;;;;;5000802;28;20033;-63
2022/02/11 06:22:58;;;;;;;9.90;1.10;;;4.70;99.90;;;;;;4998276;28;20037;-64
2022/02/11 06:25:24;;;;;;;9.18;1.42;;;4.70;99.90;;;;;;5001359;28;20050;-64
2022/02/11 06:27:50;;;;;;;5.72;1.05;;;4.70;99.90;;;;;;5000972;28;20528;-64
2022/02/11 06:30:16;;;;;;;9.80;1.38;;;4.70;99.90;;;;;;4999640;28;20070;-64
2022/02/11 06:32:41;;;;;;;18.65;2.03;;;4.60;99.90;;;;;;5002276;28;20402;-64
2022/02/11 06:35:11;;;;;;;12.23;2.35;;;4.70;99.90;;;;;;4999063;28;20053;-63
2022/02/11 06:37:37;;;;;;;14.30;2.20;;;4.70;99.90;;;;;;5000780;28;20037;-64
2022/02/11 06:40:03;;;;;;;10.93;1.58;;;4.70;99.90;;;;;;4997062;28;20406;-64
2022/02/11 06:42:29;;;;;;;12.45;1.95;;;4.70;99.90;;;;;;5002485;28;20034;-64
2022/02/11 06:44:55;;;;;;;14.55;2.50;;;4.70;99.90;;;;;;4998882;28;20042;-64
2022/02/11 06:47:21;;;;;;;10.90;1.70;;;4.70;99.90;;;;;;4998989;28;20064;-64
2022/02/11 06:49:47;;;;;;;7.68;2.00;;;4.80;99.90;;;;;;4999938;28;20023;-62
2022/02/11 06:52:13;;;;;;;13.73;1.23;;;4.80;99.90;;;;;;4999423;28;20100;-63
2022/02/11 06:54:39;;;;;;;5.30;1.00;;;4.80;99.90;;;;;;4997212;28;20495;-64
2022/02/11 06:57:04;;;;;;;7.13;1.45;;;4.90;99.90;;;;;;5000597;28;20473;-65
2022/02/11 06:59:30;;;;;;;9.80;1.95;;;4.90;99.90;;;;;;4999440;28;20034;-64
2022/02/11 07:01:56;;;;;;;9.60;0.82;;;4.80;99.90;;;;;;5002850;28;20046;-65
2022/02/11 07:04:21;;;;;;;4.30;0.98;;;4.60;99.90;;;;;;5003572;28;20042;-64
2022/02/11 07:06:48;;;;;;;9.57;1.83;;;4.40;99.90;;;;;;5003687;28;20030;-64
2022/02/11 07:09:13;;;;;;;7.68;1.23;;;4.20;99.90;;;;;;5004180;28;20034;-65
2022/02/11 07:11:39;;;;;;;8.80;1.20;;;4.20;99.90;;;;;;5002531;28;20030;-64
2022/02/11 07:14:05;;;;;;;6.80;1.33;;;4.10;99.90;;;;;;5004956;28;20117;-65
2022/02/11 07:16:30;;;;;;;9.15;1.25;;;4.20;99.90;;;;;;5001071;28;20085;-64
2022/02/11 07:18:56;;;;;;;4.75;0.98;;;4.20;99.90;;;;;;5004384;28;20144;-64
2022/02/11 07:21:22;;;;;;;4.97;0.85;;;4.10;99.90;;;;;;5003504;28;20037;-64
2022/02/11 07:23:47;;;;;;;4.20;0.88;;;4.00;99.90;;;;;;5003296;28;20034;-64
2022/02/11 07:26:13;;;;;;;8.45;0.75;;;4.00;99.90;;;;;;5003062;28;20458;-64
2022/02/11 07:28:38;;;;;;;5.05;0.73;;;3.90;99.90;;;;;;5002428;28;20491;-63
2022/02/11 07:31:04;;;;;;;4.82;0.77;;;3.80;99.90;;;;;;5004366;28;20030;-64
2022/02/11 07:33:30;;;;;;;5.18;0.65;;;3.80;99.90;;;;;;5001816;28;20072;-62
2022/02/11 07:35:56;;;;;;;14.20;1.70;;;3.80;99.90;;;;;;5005734;28;20056;-64
2022/02/11 07:38:22;;;;;;;7.55;0.68;;;3.80;99.90;;;;;;5010504;28;20561;-63
2022/02/11 07:40:48;;;;;;;8.82;1.52;;;3.90;99.90;;;;;;5011283;28;20118;-63
2022/02/11 07:43:14;;;;;;;10.02;1.58;;;3.90;99.90;;;;;;5011934;28;20092;-64
2022/02/11 07:45:40;;;;;;;14.23;1.30;;;3.90;99.90;;;;;;5011721;28;20065;-65
2022/02/11 07:48:05;;;;;;;5.57;0.90;;;3.90;99.90;;;;;;5004138;28;20323;-63
2022/02/11 07:50:31;;;;;;;8.18;1.15;;;3.90;99.90;;;;;;5004388;28;20033;-63
2022/02/11 07:52:57;;;;;;;10.63;1.55;;;4.00;99.90;;;;;;5002717;28;20121;-63
2022/02/11 07:55:22;;;;;;;15.13;1.92;;;4.00;99.90;;;;;;5004093;28;20070;-63
2022/02/11 07:57:48;;;;;;;4.90;1.20;;;4.10;99.90;;;;;;5005417;28;20125;-62
2022/02/11 08:00:14;;;;;;;13.32;1.73;;;4.10;99.90;;;;;;5002520;28;20096;-64
2022/02/11 08:02:40;;;;;;;11.32;1.30;;;4.10;99.90;;;;;;5004358;28;20045;-64
2022/02/11 08:05:08;;;;;;;11.48;1.95;;;4.10;99.90;;;;;;4996792;28;20038;-63
2022/02/11 08:07:34;;;;;;;13.20;1.73;;;4.10;99.90;;;;;;5003832;28;20485;-65
2022/02/11 08:09:59;;;;;;;8.40;1.10;;;4.20;99.90;;;;;;4999552;28;20037;-65
2022/02/11 08:12:25;;;;;;;10.88;1.10;;;4.20;99.90;;;;;;5001272;28;20030;-64
2022/02/11 08:14:51;;;;;;;17.02;2.00;;;4.30;99.90;;;;;;5000783;28;20076;-64
2022/02/11 08:17:17;;;;;;;10.77;1.67;;;4.40;99.90;;;;;;5001102;28;20041;-63
2022/02/11 08:19:42;;;;;;;10.65;1.88;;;4.40;99.90;;;;;;5000732;28;20038;-64
2022/02/11 08:22:08;;;;;;;10.30;1.67;;;4.30;99.90;;;;;;4999860;28;20111;-64
2022/02/11 08:24:34;;;;;;;16.17;2.05;;;4.30;99.90;;;;;;4998507;28;20461;-63
2022/02/11 08:26:59;;;;;;;14.27;1.88;;;4.30;99.90;;;;;;5002761;28;20034;-63
2022/02/11 08:29:25;;;;;;;15.30;2.00;;;4.50;99.90;;;;;;5000311;28;20510;-63
2022/02/11 08:31:55;;;;;;;20.42;2.25;;;4.50;99.90;;;;;;5001760;28;20034;-64
2022/02/11 08:34:24;;;;;;;8.97;2.33;;;4.70;99.90;;;;;;5000647;28;20132;-64
2022/02/11 08:36:50;;;;;;;10.40;1.65;;;4.80;99.90;;;;;;5000993;28;20304;-64
2022/02/11 08:39:17;;;;;;;11.65;1.70;;;4.80;99.90;;;;;;5002464;28;20026;-64
2022/02/11 08:41:43;;;;;;;17.15;2.20;;;4.90;99.90;;;;;;5000482;28;20689;-63
2022/02/11 08:44:09;;;;;;;10.02;1.77;;;5.00;99.90;;;;;;5001948;28;20035;-64
2022/02/11 08:46:34;;;;;;;15.70;2.78;;;5.00;99.90;;;;;;5000146;28;20113;-64
2022/02/11 08:49:00;;;;;;;23.00;3.15;;;5.10;99.90;;;;;;5002744;28;20034;-64
2022/02/11 08:51:27;;;;;;;9.40;1.50;;;5.20;99.90;;;;;;5000535;28;20113;-64
2022/02/11 08:53:53;;;;;;;11.85;1.60;;;5.20;99.90;;;;;;4999399;28;20443;-65
2022/02/11 08:56:19;;;;;;;8.70;1.98;;;5.30;99.90;;;;;;4992497;28;20042;-64
2022/02/11 08:58:44;;;;;;;15.13;1.65;;;5.40;99.90;;;;;;5001121;28;20034;-63
2022/02/11 09:01:10;;;;;;;13.82;2.80;;;5.50;99.90;;;;;;4995714;28;20044;-63
2022/02/11 09:03:36;;;;;;;16.15;2.00;;;5.70;99.90;;;;;;4996217;28;20038;-65
2022/02/11 09:06:05;;;;;;;14.25;1.40;;;5.90;99.90;;;;;;4997706;28;20030;-64
2022/02/11 09:08:34;;;;;;;7.40;1.17;;;6.00;99.90;;;;;;4996559;28;20057;-64
2022/02/11 09:11:01;;;;;;;13.38;1.77;;;6.10;99.90;;;;;;4997488;28;20473;-65
2022/02/11 09:13:27;;;;;;;7.88;2.50;;;6.10;99.90;;;;;;4996326;28;20022;-64
2022/02/11 09:15:54;;;;;;;11.20;2.45;;;6.00;99.90;;;;;;4998086;28;20038;-64
2022/02/11 09:18:20;;;;;;;15.98;1.77;;;6.00;99.90;;;;;;5000481;28;20042;-64
2022/02/11 09:20:46;;;;;;;11.70;1.50;;;6.10;99.90;;;;;;4996576;28;20088;-64
2022/02/11 09:23:11;;;;;;;11.05;1.38;;;6.20;99.90;;;;;;5001368;28;20053;-65
2022/02/11 09:25:37;;;;;;;13.23;1.85;;;6.30;99.90;;;;;;4999076;28;20054;-65
2022/02/11 09:28:02;;;;;;;18.48;2.08;;;6.50;99.90;;;;;;5000910;28;20495;-65
2022/02/11 09:30:28;;;;;;;13.57;1.52;;;6.60;99.90;;;;;;4997895;28;20038;-65
2022/02/11 09:32:55;;;;;;;12.45;1.52;;;6.60;99.90;;;;;;5002826;28;20038;-64
2022/02/11 09:35:22;;;;;;;8.15;2.38;;;6.60;99.90;;;;;;4998537;28;20030;-65
2022/02/11 09:37:48;;;;;;;10.57;2.78;;;6.50;99.90;;;;;;5000960;28;20034;-64
2022/02/11 09:40:16;;;;;;;7.00;1.58;;;6.40;99.90;;;;;;5000612;28;20030;-64
2022/02/11 09:42:42;;;;;;;14.55;2.33;;;6.40;99.90;;;;;;5002553;28;20090;-63
2022/02/11 09:45:10;;;;;;;9.05;1.88;;;6.30;99.90;;;;;;5001817;28;20574;-64
2022/02/11 09:47:37;;;;;;;7.28;1.73;;;6.40;99.90;;;;;;5000847;28;20034;-63
2022/02/11 09:50:05;;;;;;;12.48;1.60;;;6.50;99.90;;;;;;5001431;28;20042;-66
2022/02/11 09:52:51;;;;;;;6.18;1.05;;;6.50;99.90;;;;;;4998642;28;20038;-64
2022/02/11 09:55:33;;;;;;;5.43;1.55;;;6.60;99.90;;;;;;5000479;28;20076;-64
2022/02/11 09:58:11;;;;;;;18.10;2.10;;;6.70;99.90;;;;;;4996215;28;20039;-64
2022/02/11 10:00:41;;;;;;;8.30;1.05;;;6.80;99.90;;;;;;5001127;28;20787;-65
2022/02/11 10:03:23;;;;;;;7.88;1.00;;;6.90;99.90;;;;;;5000725;28;20446;-66
2022/02/11 10:05:58;;;;;;;11.63;1.48;;;6.90;99.90;;;;;;4998687;28;20406;-64
2022/02/11 10:08:26;;;;;;;7.13;1.38;;;6.90;99.90;;;;;;4994092;28;20465;-65
2022/02/11 10:10:52;;;;;;;7.88;1.67;;;7.00;99.90;;;;;;5001337;28;20042;-64
2022/02/11 10:13:33;;;;;;;8.45;1.20;;;7.30;99.90;;;;;;4998102;28;20038;-64
2022/02/11 10:16:11;;;;;;;18.00;2.55;;;7.40;99.90;;;;;;4995404;28;20038;-64
2022/02/11 10:18:48;;;;;;;14.48;1.25;;;7.40;99.90;;;;;;4998697;28;20035;-64
2022/02/11 10:21:23;;;;;;;7.00;1.35;;;7.40;99.90;;;;;;4990301;28;20399;-64
2022/02/11 10:23:54;;;;;;;7.38;1.10;;;7.30;99.90;;;;;;4993150;28;21367;-63
2022/02/11 10:26:22;;;;;;;;;;;7.20;99.90;;;;;;5000647;28;20503;-65
2022/02/11 10:28:53;;;;;;;15.57;2.25;;;7.10;99.90;;;;;;4996321;28;19935;-65
2022/02/11 10:31:23;;;;;;;;;;;6.90;99.90;;;;;;4994928;28;20490;-64
2022/02/11 10:33:59;;;;;;;16.40;2.40;;;6.70;99.90;;;;;;4995487;28;19913;-65
2022/02/11 10:36:40;;;;;;;10.55;1.35;;;6.60;99.90;;;;;;4998050;28;20022;-63
2022/02/11 10:39:27;;;;;;;13.23;2.00;;;6.60;99.90;;;;;;4996229;28;20062;-65
2022/02/11 10:41:56;;;;;;;10.77;1.23;;;6.80;99.90;;;;;;4996071;28;20034;-65
2022/02/11 10:44:29;;;;;;;12.80;1.55;;;6.80;99.90;;;;;;4993711;28;20129;-65
2022/02/11 10:46:58;;;;;;;9.57;1.17;;;6.80;99.90;;;;;;4994674;28;20058;-64
2022/02/11 10:49:34;;;;;;;11.60;1.23;;;6.90;99.90;;;;;;5001491;28;20037;-65
2022/02/11 10:52:23;;;;;;;11.38;1.58;;;7.00;99.90;;;;;;4994283;28;20118;-65
2022/02/11 10:54:54;;;;;;;8.48;1.27;;;7.00;99.90;;;;;;4998331;28;20026;-65
2022/02/11 10:57:22;;;;;;;8.95;1.35;;;7.10;99.90;;;;;;4994055;28;20399;-64
2022/02/11 10:59:50;;;;;;;5.45;0.82;;;7.10;99.90;;;;;;5001333;28;20380;-65
2022/02/11 11:02:20;;;;;;;6.65;0.50;;;7.10;99.90;;;;;;4998405;28;20070;-65
2022/02/11 11:04:50;;;;;;;6.30;0.77;;;7.20;99.90;;;;;;4999714;28;20125;-65
2022/02/11 11:07:27;;;;;;;8.25;1.38;;;7.20;99.90;;;;;;4998658;28;20038;-64
2022/02/11 11:09:55;;;;;;;6.10;1.42;;;7.30;99.90;;;;;;4993976;28;20046;-65
2022/02/11 11:12:23;;;;;;;10.63;1.30;;;7.30;99.70;;;;;;5001611;28;20030;-65
2022/02/11 11:14:51;;;;;;;12.48;1.73;;;7.30;99.90;;;;;;4996449;28;20380;-64
2022/02/11 11:17:19;;;;;;;6.40;1.23;;;7.40;99.90;;;;;;5018197;23;20152;-61
2022/02/11 11:19:45;;;;;;;8.20;0.85;;;7.40;99.90;;;;;;5010532;28;20053;-62
2022/02/11 11:22:11;;;;;;;11.20;1.10;;;7.60;99.90;;;;;;5017469;28;20061;-61
2022/02/11 11:24:43;;;;;;;6.32;1.05;;;7.80;99.90;;;;;;5017533;28;20080;-61
2022/02/11 11:27:08;;;;;;;10.65;1.67;;;7.90;99.30;;;;;;5001895;28;20033;-60
2022/02/11 11:29:34;;;;;;;9.15;0.80;;;8.00;99.20;;;;;;5007683;28;20026;-61
2022/02/11 11:32:00;;;;;;;9.77;1.10;;;8.10;98.00;;;;;;5023089;23;20144;-66
2022/02/11 11:34:30;;;;;;;5.50;1.15;;;8.10;98.70;;;;;;5015339;28;20022;-64
2022/02/11 11:37:03;;;;;;;9.48;1.13;;;8.10;98.10;;;;;;5018571;28;20088;-69
2022/02/11 11:39:28;;;;;;;3.33;0.95;;;8.10;97.50;;;;;;5016558;28;20035;-66
2022/02/11 11:42:14;;;;;;;7.40;0.60;;;8.10;97.30;;;;;;5015025;28;20025;-69
2022/02/11 11:45:00;;;;;;;4.45;0.77;;;8.10;96.90;;;;;;5015476;28;20034;-68
2022/02/11 11:47:43;;;;;;;6.45;1.02;;;8.10;97.70;;;;;;5020618;28;20045;-70
2022/02/11 11:50:18;;;;;;;6.90;0.82;;;8.00;98.20;;;;;;5022616;28;20038;-69
2022/02/11 11:52:46;;;;;;;8.27;1.45;;;8.10;97.50;;;;;;5021999;28;20034;-67
2022/02/11 11:55:19;;;;;;;6.43;0.82;;;8.10;97.30;;;;;;5016964;28;20429;-67
2022/02/11 11:57:45;;;;;;;3.15;0.73;;;8.10;97.20;;;;;;5022860;28;20578;-66
2022/02/11 12:00:11;;;;;;;5.25;0.55;;;8.20;97.30;;;;;;5022100;28;20026;-69
2022/02/11 12:02:38;;;;;;;7.53;0.60;;;8.30;96.70;;;;;;5018500;28;20034;-67
2022/02/11 12:05:05;;;;;;;4.82;0.50;;;8.30;95.00;;;;;;5019966;28;20069;-69
2022/02/11 12:07:35;;;;;;;11.73;0.80;;;8.40;96.30;;;;;;5021669;28;20045;-65
2022/02/11 12:10:12;;;;;;;2.55;0.40;;;8.60;96.00;;;;;;5015157;28;20033;-68
2022/02/11 12:12:37;;;;;;;4.53;0.77;;;8.70;93.70;;;;;;5016550;28;20064;-68
2022/02/11 12:15:09;;;;;;;5.05;0.50;;;8.80;93.40;;;;;;5022684;28;20169;-68
2022/02/11 12:17:35;;;;;;;3.00;0.40;;;8.70;92.60;;;;;;5021529;28;20041;-66
2022/02/11 12:20:00;;;;;;;6.10;0.60;;;8.70;93.40;;;;;;5015546;28;20449;-69
2022/02/11 12:22:31;;;;;;;3.47;0.38;;;8.60;93.70;;;;;;5023742;28;20124;-65
2022/02/11 12:27:45;;;;;;;7.25;1.33;;;8.30;95.60;;;;;;5018509;28;19924;-65
2022/02/11 12:30:22;;;;;;;8.60;1.13;;;8.10;96.00;;;;;;5012455;28;20044;-68
2022/02/11 12:32:53;;;;;;;5.63;0.80;;;8.00;95.80;;;;;;5017429;28;20039;-65
2022/02/11 12:35:23;;;;;;;5.57;1.05;;;7.90;96.60;;;;;;5020486;28;20102;-68
2022/02/11 12:37:49;;;;;;;5.72;0.88;;;8.10;97.30;;;;;;5015811;28;20037;-66
2022/02/11 12:40:16;;;;;;;4.28;0.60;;;8.20;98.20;;;;;;5019045;28;20037;-68
2022/02/11 12:42:46;;;;;;;6.20;1.25;;;8.30;96.40;;;;;;5022587;28;20057;-69
2022/02/11 12:45:19;;;;;;;7.25;1.00;;;8.30;96.50;;;;;;5018767;28;20049;-67
2022/02/11 12:47:45;;;;;;;6.28;0.70;;;8.20;96.50;;;;;;5013558;28;20120;-67
2022/02/11 12:50:11;;;;;;;9.38;1.48;;;8.10;96.30;;;;;;5021236;28;20419;-68
2022/02/11 12:52:39;;;;;;;5.97;0.75;;;8.00;96.90;;;;;;5020080;28;20510;-67
2022/02/11 12:55:09;;;;;;;6.80;0.55;;;8.00;98.00;;;;;;5016650;28;20038;-69
2022/02/11 12:57:36;;;;;;;8.40;0.93;;;8.00;98.40;;;;;;5021559;28;20065;-69
2022/02/11 13:00:04;;;;;;;8.68;1.58;;;7.90;98.70;;;;;;5019579;28;20120;-68
2022/02/11 13:02:32;;;;;;;5.28;1.10;;;7.90;99.60;;;;;;5016854;28;20033;-69
2022/02/11 13:05:24;;;;;;;8.35;0.65;;;7.80;98.80;;;;;;5017963;28;20072;-69
2022/02/11 13:07:52;;;;;;;8.02;1.35;;;7.70;99.50;;;;;;5014381;28;20034;-70
2022/02/11 13:10:29;;;;;;;6.75;1.17;;;7.60;99.90;;;;;;5020945;28;20052;-68
2022/02/11 13:12:56;;;;;;;5.38;1.08;;;7.50;99.90;;;;;;5017781;28;20056;-68
2022/02/11 13:15:28;;;;;;;5.95;1.20;;;7.40;99.90;;;;;;5023074;28;20087;-67
2022/02/11 13:17:55;;;;;;;14.55;1.48;;;7.30;99.90;;;;;;5023888;28;20473;-68
2022/02/11 13:20:27;;;;;;;11.15;1.05;;;7.30;99.90;;;;;;5024839;28;20477;-67
2022/02/11 13:22:53;;;;;;;13.20;0.75;;;7.40;99.90;;;;;;5024426;28;20033;-67
2022/02/11 13:25:19;;;;;;;6.43;0.60;;;7.50;99.90;;;;;;5025604;28;20034;-67
2022/02/11 13:27:53;;;;;;;5.60;0.90;;;7.70;99.90;;;;;;5027214;28;20037;-67
2022/02/11 13:30:31;;;;;;;8.88;1.40;;;7.80;99.90;;;;;;5017448;28;20525;-69
2022/02/11 13:32:59;;;;;;;6.47;1.13;;;7.80;99.90;;;;;;5025566;28;20038;-67
2022/02/11 13:35:26;;;;;;;9.32;1.38;;;7.80;99.90;;;;;;5024099;28;20025;-67
2022/02/11 13:37:59;;;;;;;8.40;1.58;;;7.70;99.90;;;;;;5024687;28;20141;-64
2022/02/11 13:40:29;;;;;;;19.92;1.67;;;7.70;99.90;;;;;;5026844;28;20516;-67
2022/02/11 13:42:57;;;;;;;6.80;1.02;;;7.60;99.90;;;;;;5028665;28;20038;-67
2022/02/11 13:45:24;;;;;;;8.52;1.30;;;7.50;99.90;;;;;;5028793;28;20124;-67
2022/02/11 13:48:01;;;;;;;6.72;1.33;;;7.50;99.90;;;;;;5023825;28;20029;-66
2022/02/11 13:50:27;;;;;;;3.28;0.57;;;7.60;99.30;;;;;;5029951;28;20111;-68
2022/02/11 13:53:03;;;;;;;8.73;0.75;;;7.70;98.50;;;;;;5027531;28;20064;-67
2022/02/11 13:55:30;;;;;;;5.38;0.50;;;7.80;97.40;;;;;;5027613;28;20045;-67
2022/02/11 13:57:56;;;;;;;1.77;0.40;;;7.90;96.30;;;;;;5024109;28;20038;-67
2022/02/11 14:00:37;;;;;;;3.25;0.30;;;8.10;96.20;;;;;;5022646;28;20044;-68
2022/02/11 14:03:03;;;;;;;2.63;0.38;;;8.10;95.10;;;;;;5026572;28;20037;-69
2022/02/11 14:05:41;;;;;;;7.25;1.00;;;8.10;94.60;;;;;;5031993;28;20049;-72
2022/02/11 14:08:07;;;;;;;4.50;0.55;;;8.10;94.10;;;;;;5023229;28;20383;-69
2022/02/11 14:10:32;;;;;;;11.10;1.73;;;8.10;95.40;;;;;;5032627;28;20099;-68
2022/02/11 14:13:08;;;;;;;9.18;1.38;;;8.00;97.60;;;;;;5029862;28;20049;-71
2022/02/11 14:15:35;;;;;;;7.97;1.52;;;7.90;98.60;;;;;;5030617;28;20305;-68
2022/02/11 14:18:03;;;;;;;6.10;0.57;;;7.80;99.00;;;;;;5029742;28;20383;-72
2022/02/11 14:20:29;;;;;;;8.25;0.85;;;7.80;99.40;;;;;;5027153;28;20030;-68
2022/02/11 14:22:54;;;;;;;6.57;1.02;;;7.70;99.40;;;;;;5027994;28;20038;-71
2022/02/11 14:25:20;;;;;;;4.57;0.68;;;7.60;99.90;;;;;;5023445;28;20037;-70
2022/02/11 14:27:45;;;;;;;3.58;0.30;;;7.60;99.40;;;;;;5017061;28;20033;-72
2022/02/11 14:30:12;;;;;;;4.82;0.60;;;7.50;98.80;;;;;;5018630;28;20045;-71
2022/02/11 14:32:37;;;;;;;3.80;0.38;;;7.50;98.40;;;;;;5015446;28;20042;-67
2022/02/11 14:35:03;;;;;;;5.78;0.63;;;7.50;98.60;;;;;;5021088;28;20066;-68
2022/02/11 14:37:29;;;;;;;7.60;1.05;;;7.60;99.70;;;;;;5022137;28;20117;-66
2022/02/11 14:39:55;;;;;;;6.10;1.23;;;7.60;99.90;;;;;;5019232;28;20120;-67
2022/02/11 14:42:20;;;;;;;8.45;1.52;;;7.80;99.50;;;;;;5018145;28;20120;-66
2022/02/11 14:44:46;;;;;;;3.75;0.70;;;7.90;99.90;;;;;;5015972;28;20034;-68
2022/02/11 14:47:13;;;;;;;4.63;0.82;;;8.10;98.80;;;;;;5016544;28;20104;-67
2022/02/11 14:49:41;;;;;;;9.65;1.27;;;8.20;98.70;;;;;;5016962;28;20026;-68
2022/02/11 14:52:09;;;;;;;3.70;0.82;;;8.10;99.20;;;;;;5012674;28;20029;-68
2022/02/11 14:54:36;;;;;;;5.65;0.60;;;8.10;98.10;;;;;;5016007;28;20690;-68
2022/02/11 14:57:03;;;;;;;11.23;0.80;;;8.10;98.70;;;;;;5019494;28;20062;-67
2022/02/11 14:59:29;;;;;;;4.93;1.30;;;7.90;99.50;;;;;;5017612;28;20026;-67
2022/02/11 15:01:55;;;;;;;8.57;2.17;;;7.80;99.90;;;;;;5019163;28;20394;-67
2022/02/11 15:04:21;;;;;;;6.63;0.63;;;7.70;99.90;;;;;;5020405;28;20034;-68
2022/02/11 15:06:50;;;;;;;14.18;1.10;;;7.70;99.90;;;;;;5018777;28;20037;-67
2022/02/11 15:09:16;;;;;;;5.57;1.40;;;7.60;99.90;;;;;;5020235;28;20447;-66
2022/02/11 15:11:42;;;;;;;6.00;0.50;;;7.40;99.90;;;;;;5016774;28;20075;-69
2022/02/11 15:14:08;;;;;;;4.85;1.27;;;7.30;99.90;;;;;;5021263;28;20109;-67
2022/02/11 15:16:34;;;;;;;4.20;0.60;;;7.20;99.90;;;;;;5017582;28;20108;-67
2022/02/11 15:19:00;;;;;;;7.80;1.13;;;7.10;99.90;;;;;;5019788;28;20034;-68
2022/02/11 15:21:26;;;;;;;4.53;0.82;;;7.00;99.90;;;;;;5017466;28;20033;-67
2022/02/11 15:23:52;;;;;;;11.82;1.00;;;6.90;99.90;;;;;;5021372;28;20068;-67
2022/02/11 15:26:18;;;;;;;7.93;1.05;;;6.80;99.90;;;;;;5020242;28;20037;-67
2022/02/11 15:28:44;;;;;;;5.03;0.43;;;6.80;99.90;;;;;;5025162;28;20103;-68
2022/02/11 15:31:13;;;;;;;10.82;0.45;;;6.80;99.90;;;;;;5024231;28;20037;-68
2022/02/11 15:33:41;;;;;;;8.13;1.00;;;6.70;99.90;;;;;;5020220;28;20686;-68
2022/02/11 15:36:08;;;;;;;6.47;1.08;;;6.80;99.90;;;;;;5024643;28;20037;-68
2022/02/11 15:38:34;;;;;;;9.30;0.77;;;6.70;99.90;;;;;;5015820;28;20041;-67
2022/02/11 15:41:00;;;;;;;8.50;1.67;;;6.80;99.90;;;;;;5023495;28;20045;-67
2022/02/11 15:43:25;;;;;;;6.35;1.15;;;6.80;99.90;;;;;;5021546;28;20029;-66
2022/02/11 15:45:51;;;;;;;9.20;1.20;;;6.80;99.90;;;;;;5024626;28;20046;-66
2022/02/11 15:48:17;;;;;;;6.75;0.70;;;6.70;99.90;;;;;;5020491;28;20033;-68
2022/02/11 15:50:42;;;;;;;6.82;0.95;;;6.70;99.90;;;;;;5023548;28;20030;-68
2022/02/11 15:53:09;;;;;;;10.93;0.85;;;6.60;99.90;;;;;;5018462;28;20052;-67
2022/02/11 15:55:35;;;;;;;7.18;1.17;;;6.60;99.90;;;;;;5013061;28;20044;-68
2022/02/11 15:58:00;;;;;;;8.02;0.95;;;6.60;99.90;;;;;;5018040;28;20045;-67
2022/02/11 16:00:26;;;;;;;4.70;0.73;;;6.60;99.90;;;;;;5017039;28;20042;-66
2022/02/11 16:02:51;;;;;;;8.65;1.45;;;6.70;99.90;;;;;;5017109;28;20034;-67
2022/02/11 16:05:17;;;;;;;2.67;0.63;;;6.60;99.90;;;;;;5019296;28;20037;-68
2022/02/11 16:07:43;;;;;;;10.48;1.27;;;6.60;99.90;;;;;;5013934;28;20082;-65
2022/02/11 16:10:09;;;;;;;11.60;1.35;;;6.60;99.90;;;;;;5014088;28;20030;-67
2022/02/11 16:12:35;;;;;;;6.63;0.98;;;6.50;99.90;;;;;;5021983;28;20060;-68
2022/02/11 16:15:01;;;;;;;5.05;0.82;;;6.50;99.90;;;;;;5019321;28;20030;-67
2022/02/11 16:17:28;;;;;;;6.88;1.58;;;6.50;99.90;;;;;;5016368;28;20034;-66
2022/02/11 16:19:54;;;;;;;14.32;1.27;;;6.40;99.90;;;;;;5022312;28;20038;-67
2022/02/11 16:22:20;;;;;;;14.93;2.20;;;6.40;99.90;;;;;;5021108;28;20157;-69
2022/02/11 16:24:46;;;;;;;3.22;0.65;;;6.40;99.90;;;;;;5016884;28;20029;-66
2022/02/11 16:27:15;;;;;;;5.57;1.60;;;6.30;99.90;;;;;;5018374;28;20088;-70
2022/02/11 16:29:42;;;;;;;7.80;1.48;;;6.20;99.90;;;;;;5021974;28;20029;-67
2022/02/11 16:32:08;;;;;;;3.20;0.80;;;6.00;99.90;;;;;;5017673;28;20037;-67
2022/02/11 16:34:34;;;;;;;3.42;0.50;;;5.90;99.90;;;;;;5022300;28;20030;-69
2022/02/11 16:37:00;;;;;;;11.55;1.23;;;5.80;99.90;;;;;;5020394;28;20068;-68
2022/02/11 16:39:26;;;;;;;8.68;1.33;;;5.70;99.90;;;;;;5020015;28;20429;-68
2022/02/11 16:41:51;;;;;;;4.93;0.75;;;5.60;99.90;;;;;;5021522;28;20095;-68
2022/02/11 16:44:18;;;;;;;15.43;0.90;;;5.60;99.90;;;;;;5018799;28;20072;-67
2022/02/11 16:46:47;;;;;;;6.57;1.33;;;5.50;99.90;;;;;;5018060;28;20059;-69
2022/02/11 16:49:13;;;;;;;8.95;1.08;;;5.40;99.90;;;;;;5020568;28;20026;-68